createdAt,value
2016-08-05T00:00:59.515Z,99.99
2016-08-05T00:02:14.473Z,99.99
2016-08-05T00:02:59.576Z,99.99
2016-08-05T00:03:59.600Z,99.99
2016-08-05T00:04:59.623Z,99.99
2016-08-05T00:05:59.651Z,99.99
2016-08-05T00:06:59.677Z,99.99
2016-08-05T00:07:59.702Z,99.99
2016-08-05T00:08:59.735Z,99.99
2016-08-05T00:10:59.787Z,99.99
2016-08-05T00:11:59.814Z,99.99
2016-08-05T00:12:59.838Z,99.99
2016-08-05T00:13:59.871Z,99.99
2016-08-05T00:14:59.893Z,99.99
2016-08-05T00:15:59.927Z,99.99
2016-08-05T00:17:14.869Z,99.99
2016-08-05T00:17:59.976Z,99.99
2016-08-05T00:19:00.002Z,99.99
2016-08-05T00:20:00.022Z,99.99
2016-08-05T00:21:00.049Z,99.99
2016-08-05T00:22:00.077Z,99.99
2016-08-05T00:23:00.105Z,99.99
2016-08-05T00:24:00.182Z,99.99
2016-08-05T00:25:00.157Z,99.99
2016-08-05T00:26:00.881Z,99.99
2016-08-05T00:27:00.212Z,99.99
2016-08-05T00:28:00.237Z,99.99
2016-08-05T00:29:00.264Z,99.99
2016-08-05T00:30:00.296Z,99.99
2016-08-05T00:31:00.313Z,99.99
2016-08-05T00:32:00.349Z,99.99
2016-08-05T00:35:00.422Z,99.99
2016-08-05T00:36:00.455Z,99.99
2016-08-05T00:37:00.478Z,99.99
2016-08-05T00:38:00.505Z,99.99
2016-08-05T00:39:00.533Z,99.99
2016-08-05T00:40:00.560Z,99.99
2016-08-05T00:41:00.584Z,99.99
2016-08-05T00:42:00.662Z,99.99
2016-08-05T00:43:00.636Z,99.99
2016-08-05T00:44:00.664Z,99.99
2016-08-05T00:45:00.689Z,99.99
2016-08-05T00:47:00.743Z,99.99
2016-08-05T00:48:00.765Z,99.99
2016-08-05T00:49:15.718Z,99.99
2016-08-05T00:50:00.826Z,99.99
2016-08-05T00:51:00.847Z,99.99
2016-08-05T00:52:00.883Z,99.99
2016-08-05T00:53:00.900Z,99.99
2016-08-05T00:54:00.929Z,99.99
2016-08-05T00:55:00.950Z,99.99
2016-08-05T00:56:00.978Z,99.99
2016-08-05T00:58:01.039Z,99.99
2016-08-05T00:59:01.062Z,99.99
2016-08-05T01:00:01.083Z,99.99
2016-08-05T01:01:01.120Z,99.99
2016-08-05T01:02:01.150Z,99.99
2016-08-05T01:04:01.191Z,99.99
2016-08-05T01:05:16.142Z,99.99
2016-08-05T01:06:01.241Z,99.99
2016-08-05T01:08:01.291Z,99.99
2016-08-05T01:09:01.326Z,99.99
2016-08-05T01:10:01.359Z,99.99
2016-08-05T01:11:01.374Z,99.99
2016-08-05T01:12:01.402Z,99.99
2016-08-05T01:13:02.132Z,99.99
2016-08-05T01:14:01.457Z,99.99
2016-08-05T01:15:01.475Z,99.99
2016-08-05T01:16:01.502Z,99.99
2016-08-05T01:17:01.530Z,99.99
2016-08-05T01:18:01.556Z,99.99
2016-08-05T01:19:01.687Z,99.99
2016-08-05T01:20:01.611Z,99.99
2016-08-05T01:21:16.562Z,99.99
2016-08-05T01:22:01.659Z,99.99
2016-08-05T01:23:01.693Z,99.99
2016-08-05T01:24:01.718Z,99.99
2016-08-05T01:25:01.755Z,99.99
2016-08-05T01:26:01.766Z,99.99
2016-08-05T01:27:01.793Z,99.99
2016-08-05T01:28:01.819Z,99.99
2016-08-05T01:29:01.849Z,99.99
2016-08-05T01:30:01.871Z,99.99
2016-08-05T01:31:01.901Z,99.99
2016-08-05T01:32:01.925Z,99.99
2016-08-05T01:33:01.955Z,99.99
2016-08-05T01:34:01.979Z,99.99
2016-08-05T01:35:02.008Z,99.99
2016-08-05T01:36:02.038Z,99.99
2016-08-05T01:37:16.981Z,99.99
2016-08-05T01:38:02.080Z,99.99
2016-08-05T01:39:02.117Z,99.99
2016-08-05T01:40:02.141Z,99.99
2016-08-05T01:41:02.164Z,99.99
2016-08-05T01:42:02.190Z,99.99
2016-08-05T01:43:02.221Z,99.99
2016-08-05T01:44:02.239Z,99.99
2016-08-05T01:45:02.271Z,99.99
2016-08-05T01:46:02.291Z,99.99
2016-08-05T01:47:02.321Z,99.99
2016-08-05T01:48:02.348Z,99.99
2016-08-05T01:49:02.371Z,99.99
2016-08-05T01:50:02.396Z,99.99
2016-08-05T01:52:17.378Z,99.99
2016-08-05T01:53:02.481Z,99.99
2016-08-05T01:54:02.510Z,99.99
2016-08-05T01:55:02.532Z,99.99
2016-08-05T01:56:02.557Z,99.99
2016-08-05T01:57:02.590Z,99.99
2016-08-05T01:58:02.606Z,99.99
2016-08-05T01:59:02.640Z,99.99
2016-08-05T02:00:02.712Z,99.99
2016-08-05T02:01:02.688Z,99.99
2016-08-05T02:02:02.712Z,99.99
2016-08-05T02:03:02.738Z,99.99
2016-08-05T02:04:02.768Z,99.99
2016-08-05T02:06:02.821Z,99.99
2016-08-05T02:07:02.849Z,99.99
2016-08-05T02:08:02.873Z,99.99
2016-08-05T02:09:02.901Z,99.99
2016-08-05T02:10:02.925Z,99.99
2016-08-05T02:11:02.952Z,99.99
2016-08-05T02:12:02.980Z,99.99
2016-08-05T02:13:03.000Z,99.99
2016-08-05T02:14:03.033Z,99.99
2016-08-05T02:15:03.060Z,99.99
2016-08-05T02:16:03.078Z,99.99
2016-08-05T02:17:03.106Z,99.99
2016-08-05T02:18:03.133Z,99.99
2016-08-05T02:19:03.162Z,99.99
2016-08-05T02:20:03.191Z,99.99
2016-08-05T02:21:03.214Z,99.99
2016-08-05T02:22:03.240Z,99.99
2016-08-05T02:23:03.266Z,99.99
2016-08-05T02:24:18.216Z,99.99
2016-08-05T02:25:03.319Z,99.99
2016-08-05T02:26:03.397Z,99.99
2016-08-05T02:27:03.366Z,99.99
2016-08-05T02:28:03.397Z,99.99
2016-08-05T02:29:03.424Z,99.99
2016-08-05T02:30:03.450Z,99.99
2016-08-05T02:31:03.477Z,99.99
2016-08-05T02:32:03.503Z,99.99
2016-08-05T02:33:03.528Z,99.99
2016-08-05T02:34:03.549Z,99.99
2016-08-05T02:35:03.578Z,99.99
2016-08-05T02:36:03.602Z,99.99
2016-08-05T02:38:03.660Z,99.99
2016-08-05T02:39:03.701Z,99.99
2016-08-05T02:40:18.635Z,99.99
2016-08-05T02:41:03.741Z,99.99
2016-08-05T02:43:03.789Z,99.99
2016-08-05T02:44:03.817Z,99.99
2016-08-05T02:45:03.889Z,99.99
2016-08-05T02:46:03.866Z,99.99
2016-08-05T02:47:03.894Z,99.99
2016-08-05T02:48:03.917Z,99.99
2016-08-05T02:49:03.942Z,99.99
2016-08-05T02:50:03.969Z,99.99
2016-08-05T02:51:03.996Z,99.99
2016-08-05T02:52:04.031Z,99.99
2016-08-05T02:53:04.047Z,99.99
2016-08-05T02:54:04.079Z,99.99
2016-08-05T02:56:19.049Z,99.99
2016-08-05T02:57:04.150Z,99.99
2016-08-05T02:58:04.177Z,99.99
2016-08-05T02:59:04.203Z,99.99
2016-08-05T03:00:04.233Z,99.99
2016-08-05T03:01:04.260Z,99.99
2016-08-05T03:02:04.285Z,99.99
2016-08-05T03:03:04.313Z,99.99
2016-08-05T03:04:04.331Z,99.99
2016-08-05T03:05:04.363Z,99.99
2016-08-05T03:06:04.387Z,99.99
2016-08-05T03:07:04.408Z,99.99
2016-08-05T03:08:04.435Z,99.99
2016-08-05T03:09:04.467Z,99.99
2016-08-05T03:10:04.492Z,99.99
2016-08-05T03:11:04.522Z,99.99
2016-08-05T03:12:19.465Z,99.99
2016-08-05T03:13:04.565Z,99.99
2016-08-05T03:14:04.591Z,99.99
2016-08-05T03:15:04.626Z,99.99
2016-08-05T03:16:04.645Z,99.99
2016-08-05T03:17:04.673Z,99.99
2016-08-05T03:18:04.699Z,99.99
2016-08-05T03:19:04.726Z,99.99
2016-08-05T03:20:04.748Z,99.99
2016-08-05T03:21:04.776Z,99.99
2016-08-05T03:22:04.805Z,99.99
2016-08-05T03:23:04.824Z,99.99
2016-08-05T03:24:04.860Z,99.99
2016-08-05T03:25:04.879Z,99.99
2016-08-05T03:27:19.858Z,99.99
2016-08-05T03:28:04.958Z,99.99
2016-08-05T03:29:04.987Z,99.99
2016-08-05T03:30:05.008Z,99.99
2016-08-05T03:31:05.035Z,99.99
2016-08-05T03:32:05.067Z,99.99
2016-08-05T03:33:05.085Z,99.99
2016-08-05T03:34:05.117Z,99.99
2016-08-05T03:35:05.140Z,99.99
2016-08-05T03:36:05.167Z,99.99
2016-08-05T03:37:05.188Z,99.99
2016-08-05T03:38:05.218Z,99.99
2016-08-05T03:39:05.240Z,99.99
2016-08-05T03:40:05.267Z,99.99
2016-08-05T03:42:05.320Z,99.99
2016-08-05T03:43:05.341Z,99.99
2016-08-05T03:45:05.401Z,99.99
2016-08-05T03:46:05.419Z,99.99
2016-08-05T03:47:05.445Z,99.99
2016-08-05T03:48:05.472Z,99.99
2016-08-05T03:49:05.499Z,99.99
2016-08-05T03:50:05.530Z,99.99
2016-08-05T03:51:05.548Z,99.99
2016-08-05T03:52:05.577Z,99.99
2016-08-05T03:53:05.605Z,99.99
2016-08-05T03:54:05.626Z,99.99
2016-08-05T03:55:05.665Z,99.99
2016-08-05T03:56:05.678Z,99.99
2016-08-05T03:57:05.706Z,99.99
2016-08-05T03:58:05.730Z,99.99
2016-08-05T03:59:20.680Z,99.99
2016-08-05T04:00:05.785Z,99.99
2016-08-05T04:01:05.813Z,99.99
2016-08-05T04:02:05.838Z,99.99
2016-08-05T04:03:05.861Z,99.99
2016-08-05T04:04:05.938Z,99.99
2016-08-05T04:05:05.915Z,99.99
2016-08-05T04:06:05.940Z,99.99
2016-08-05T04:07:05.968Z,99.99
2016-08-05T04:08:06.002Z,99.99
2016-08-05T04:09:06.017Z,99.99
2016-08-05T04:10:06.041Z,99.99
2016-08-05T04:11:06.064Z,99.99
2016-08-05T04:12:06.094Z,99.99
2016-08-05T04:13:06.114Z,99.99
2016-08-05T04:14:06.140Z,99.99
2016-08-05T04:15:21.092Z,99.99
2016-08-05T04:17:06.225Z,99.99
2016-08-05T04:18:06.247Z,99.99
2016-08-05T04:19:06.268Z,99.99
2016-08-05T04:20:06.294Z,99.99
2016-08-05T04:21:06.323Z,99.99
2016-08-05T04:22:06.352Z,99.99
2016-08-05T04:23:06.375Z,99.99
2016-08-05T04:24:06.400Z,99.99
2016-08-05T04:25:06.420Z,99.99
2016-08-05T04:26:06.465Z,99.99
2016-08-05T04:27:06.482Z,99.99
2016-08-05T04:29:06.531Z,99.99
2016-08-05T04:30:06.552Z,99.99
2016-08-05T04:31:21.503Z,99.99
2016-08-05T04:32:06.600Z,99.99
2016-08-05T04:33:06.634Z,99.99
2016-08-05T04:34:06.655Z,99.99
2016-08-05T04:35:06.679Z,99.99
2016-08-05T04:36:06.708Z,99.99
2016-08-05T04:37:06.733Z,99.99
2016-08-05T04:38:06.753Z,99.99
2016-08-05T04:39:06.783Z,99.99
2016-08-05T04:40:06.807Z,99.99
2016-08-05T04:41:06.845Z,99.99
2016-08-05T04:42:06.859Z,99.99
2016-08-05T04:43:06.887Z,99.99
2016-08-05T04:44:06.910Z,99.99
2016-08-05T04:45:06.936Z,99.99
2016-08-05T04:46:06.966Z,99.99
2016-08-05T04:47:21.913Z,99.99
2016-08-05T04:48:07.065Z,99.99
2016-08-05T04:49:07.046Z,99.99
2016-08-05T04:50:07.066Z,99.99
2016-08-05T04:51:07.100Z,99.99
2016-08-05T04:52:07.113Z,99.99
2016-08-05T04:53:07.192Z,99.99
2016-08-05T04:54:07.170Z,99.99
2016-08-05T04:55:07.198Z,99.99
2016-08-05T04:56:07.218Z,99.99
2016-08-05T04:57:07.244Z,99.99
2016-08-05T04:58:07.269Z,99.99
2016-08-05T04:59:07.299Z,99.99
2016-08-05T05:00:07.330Z,99.99
2016-08-05T05:01:07.350Z,99.99
2016-08-05T05:02:22.347Z,99.99
2016-08-05T05:03:07.399Z,99.99
2016-08-05T05:05:07.455Z,99.99
2016-08-05T05:06:07.479Z,99.99
2016-08-05T05:07:07.701Z,99.99
2016-08-05T05:08:07.528Z,99.99
2016-08-05T05:09:07.553Z,99.99
2016-08-05T05:10:07.575Z,99.99
2016-08-05T05:11:07.607Z,99.99
2016-08-05T05:12:07.628Z,99.99
2016-08-05T05:13:07.657Z,99.99
2016-08-05T05:14:07.684Z,99.99
2016-08-05T05:15:07.706Z,99.99
2016-08-05T05:16:07.730Z,99.99
2016-08-05T05:17:07.762Z,99.99
2016-08-05T05:18:07.785Z,99.99
2016-08-05T05:19:07.805Z,99.99
2016-08-05T05:20:07.834Z,99.99
2016-08-05T05:21:07.862Z,99.99
2016-08-05T05:22:07.889Z,99.99
2016-08-05T05:23:07.913Z,99.99
2016-08-05T05:24:07.934Z,99.99
2016-08-05T05:25:07.963Z,99.99
2016-08-05T05:26:07.992Z,99.99
2016-08-05T05:27:08.012Z,99.99
2016-08-05T05:28:08.039Z,99.99
2016-08-05T05:29:08.069Z,99.99
2016-08-05T05:30:08.094Z,99.99
2016-08-05T05:31:08.114Z,99.99
2016-08-05T05:32:08.140Z,99.99
2016-08-05T05:33:08.167Z,99.99
2016-08-05T05:34:23.118Z,99.99
2016-08-05T05:35:08.219Z,99.99
2016-08-05T05:36:08.251Z,99.99
2016-08-05T05:37:08.273Z,99.99
2016-08-05T05:38:08.291Z,99.99
2016-08-05T05:39:08.318Z,99.99
2016-08-05T05:40:08.344Z,99.99
2016-08-05T05:41:08.371Z,99.99
2016-08-05T05:42:08.396Z,99.99
2016-08-05T05:43:08.423Z,99.99
2016-08-05T05:44:08.449Z,99.99
2016-08-05T05:45:08.475Z,99.99
2016-08-05T05:46:08.500Z,99.99
2016-08-05T05:47:08.525Z,99.99
2016-08-05T05:48:08.550Z,99.99
2016-08-05T05:49:08.581Z,99.99
2016-08-05T05:50:23.528Z,99.99
2016-08-05T05:52:08.658Z,99.99
2016-08-05T05:53:08.680Z,99.99
2016-08-05T05:54:08.705Z,99.99
2016-08-05T05:55:08.733Z,99.99
2016-08-05T05:56:09.583Z,99.99
2016-08-05T05:57:08.787Z,99.99
2016-08-05T05:58:08.814Z,99.99
2016-08-05T05:59:08.833Z,99.99
2016-08-05T06:00:08.860Z,99.99
2016-08-05T06:01:08.886Z,99.99
2016-08-05T06:02:08.912Z,99.99
2016-08-05T06:04:09.016Z,99.99
2016-08-05T06:05:08.991Z,99.99
2016-08-05T06:06:23.941Z,99.99
2016-08-05T06:07:09.044Z,99.99
2016-08-05T06:08:09.068Z,99.99
2016-08-05T06:09:09.096Z,99.99
2016-08-05T06:10:09.115Z,99.99
2016-08-05T06:12:09.171Z,99.99
2016-08-05T06:13:09.200Z,99.99
2016-08-05T06:14:09.221Z,99.99
2016-08-05T06:15:09.243Z,99.99
2016-08-05T06:16:09.274Z,99.99
2016-08-05T06:17:09.300Z,99.99
2016-08-05T06:18:09.320Z,99.99
2016-08-05T06:19:09.352Z,99.99
2016-08-05T06:20:09.380Z,99.99
2016-08-05T06:21:09.402Z,99.99
2016-08-05T06:22:24.351Z,99.99
2016-08-05T06:23:09.454Z,99.99
2016-08-05T06:24:09.483Z,99.99
2016-08-05T06:25:09.502Z,99.99
2016-08-05T06:26:09.528Z,99.99
2016-08-05T06:27:09.561Z,99.99
2016-08-05T06:28:09.581Z,99.99
2016-08-05T06:29:09.604Z,99.99
2016-08-05T06:30:09.631Z,99.99
2016-08-05T06:31:09.656Z,99.99
2016-08-05T06:32:09.686Z,99.99
2016-08-05T06:33:09.709Z,99.99
2016-08-05T06:35:09.766Z,99.99
2016-08-05T06:36:09.786Z,99.99
2016-08-05T06:37:24.740Z,99.99
2016-08-05T06:39:09.861Z,99.99
2016-08-05T06:40:09.890Z,99.99
2016-08-05T06:41:09.917Z,99.99
2016-08-05T06:42:09.946Z,99.99
2016-08-05T06:43:09.966Z,99.99
2016-08-05T06:44:09.994Z,99.99
2016-08-05T06:45:10.020Z,99.99
2016-08-05T06:46:10.048Z,99.99
2016-08-05T06:48:10.095Z,99.99
2016-08-05T06:49:10.121Z,99.99
2016-08-05T06:51:10.173Z,99.99
2016-08-05T06:53:10.231Z,99.99
2016-08-05T06:54:10.255Z,99.99
2016-08-05T06:55:10.283Z,99.99
2016-08-05T06:56:10.302Z,99.99
2016-08-05T06:57:10.331Z,99.99
2016-08-05T06:58:10.356Z,99.99
2016-08-05T06:59:10.387Z,99.99
2016-08-05T07:00:10.411Z,99.99
2016-08-05T07:01:10.434Z,99.99
2016-08-05T07:02:10.464Z,99.99
2016-08-05T07:03:10.486Z,99.99
2016-08-05T07:04:10.510Z,99.99
2016-08-05T07:05:10.542Z,99.99
2016-08-05T07:06:10.569Z,99.99
2016-08-05T07:07:11.291Z,99.99
2016-08-05T07:08:10.620Z,99.99
2016-08-05T07:09:25.567Z,99.99
2016-08-05T07:10:10.672Z,99.99
2016-08-05T07:11:10.694Z,99.99
2016-08-05T07:12:10.725Z,99.99
2016-08-05T07:13:10.744Z,99.99
2016-08-05T07:14:10.790Z,99.99
2016-08-05T07:15:10.797Z,99.99
2016-08-05T07:16:10.824Z,99.99
2016-08-05T07:17:10.866Z,99.99
2016-08-05T07:18:10.880Z,99.99
2016-08-05T07:19:10.904Z,99.99
2016-08-05T07:20:10.927Z,99.99
2016-08-05T07:21:10.956Z,99.99
2016-08-05T07:22:10.979Z,99.99
2016-08-05T07:23:12.064Z,99.99
2016-08-05T07:24:11.033Z,99.99
2016-08-05T07:25:25.984Z,99.99
2016-08-05T07:26:11.087Z,99.99
2016-08-05T07:28:11.140Z,99.99
2016-08-05T07:29:11.163Z,99.99
2016-08-05T07:30:11.191Z,99.99
2016-08-05T07:31:11.215Z,99.99
2016-08-05T07:32:11.243Z,99.99
2016-08-05T07:33:11.274Z,99.99
2016-08-05T07:34:11.293Z,99.99
2016-08-05T07:35:11.319Z,99.99
2016-08-05T07:36:11.352Z,99.99
2016-08-05T07:37:11.376Z,99.99
2016-08-05T07:38:11.402Z,99.99
2016-08-05T07:39:11.424Z,99.99
2016-08-05T07:40:11.452Z,99.99
2016-08-05T07:42:11.515Z,99.99
2016-08-05T07:43:11.531Z,99.99
2016-08-05T07:44:11.559Z,99.99
2016-08-05T07:45:11.581Z,99.99
2016-08-05T07:46:11.608Z,99.99
2016-08-05T07:47:11.632Z,99.99
2016-08-05T07:48:11.660Z,99.99
2016-08-05T07:49:11.689Z,99.99
2016-08-05T07:50:11.717Z,99.99
2016-08-05T07:51:11.743Z,99.99
2016-08-05T07:52:11.765Z,99.99
2016-08-05T07:53:11.788Z,99.99
2016-08-05T07:54:11.814Z,99.99
2016-08-05T07:55:11.851Z,99.99
2016-08-05T07:56:11.870Z,99.99
2016-08-05T07:57:26.822Z,99.99
2016-08-05T07:58:11.923Z,99.99
2016-08-05T07:59:11.951Z,99.99
2016-08-05T08:00:11.979Z,99.99
2016-08-05T08:01:12.012Z,99.99
2016-08-05T08:02:12.026Z,99.99
2016-08-05T08:03:12.050Z,99.99
2016-08-05T08:04:12.080Z,99.99
2016-08-05T08:05:12.107Z,99.99
2016-08-05T08:06:12.139Z,99.99
2016-08-05T08:07:12.161Z,99.99
2016-08-05T08:08:12.189Z,99.99
2016-08-05T08:09:12.211Z,99.99
2016-08-05T08:10:12.241Z,99.99
2016-08-05T08:11:12.262Z,99.99
2016-08-05T08:12:27.215Z,99.99
2016-08-05T08:13:12.321Z,99.99
2016-08-05T08:14:12.349Z,99.99
2016-08-05T08:15:12.368Z,99.99
2016-08-05T08:16:12.394Z,99.99
2016-08-05T08:17:13.125Z,99.99
2016-08-05T08:18:12.448Z,99.99
2016-08-05T08:19:12.473Z,99.99
2016-08-05T08:20:12.499Z,99.99
2016-08-05T08:21:12.524Z,99.99
2016-08-05T08:22:12.601Z,99.99
2016-08-05T08:23:12.588Z,99.99
2016-08-05T08:24:12.608Z,99.99
2016-08-05T08:25:12.632Z,99.99
2016-08-05T08:26:12.658Z,99.99
2016-08-05T08:27:12.689Z,99.99
2016-08-05T08:28:12.763Z,99.99
2016-08-05T08:29:12.747Z,99.99
2016-08-05T08:30:12.816Z,99.99
2016-08-05T08:31:12.786Z,99.99
2016-08-05T08:32:12.817Z,99.99
2016-08-05T08:33:12.843Z,99.99
2016-08-05T08:34:12.868Z,99.99
2016-08-05T08:35:12.898Z,99.99
2016-08-05T08:36:12.922Z,99.99
2016-08-05T08:37:12.945Z,99.99
2016-08-05T08:38:12.975Z,99.99
2016-08-05T08:39:12.998Z,99.99
2016-08-05T08:40:13.028Z,99.99
2016-08-05T08:42:13.081Z,99.68
2016-08-05T08:43:13.103Z,99.1
2016-08-05T08:44:28.055Z,98.63
2016-08-05T08:47:13.208Z,99.99
2016-08-05T08:48:13.238Z,97.42
2016-08-05T08:49:13.266Z,98.1
2016-08-05T08:50:13.288Z,98.86
2016-08-05T08:52:13.342Z,99.44
2016-08-05T08:53:13.370Z,98.86
2016-08-05T08:54:13.400Z,98.91
2016-08-05T08:55:13.429Z,98.24
2016-08-05T08:56:13.467Z,96.51
2016-08-05T08:57:13.474Z,96.27
2016-08-05T08:58:13.506Z,97.09
2016-08-05T08:59:13.528Z,97.86
2016-08-05T09:00:28.483Z,97.76
2016-08-05T09:01:13.588Z,97.38
2016-08-05T09:02:13.606Z,97.47
2016-08-05T09:03:13.641Z,97.09
2016-08-05T09:04:13.667Z,97.19
2016-08-05T09:05:13.695Z,96.22
2016-08-05T09:06:13.720Z,95.7
2016-08-05T09:07:13.742Z,94.92
2016-08-05T09:08:13.772Z,94.92
2016-08-05T09:09:13.802Z,94.45
2016-08-05T09:10:13.824Z,94.35
2016-08-05T09:11:13.853Z,94.54
2016-08-05T09:12:13.883Z,94.35
2016-08-05T09:13:13.911Z,94.73
2016-08-05T09:14:13.931Z,94.45
2016-08-05T09:15:13.964Z,95.31
2016-08-05T09:16:28.911Z,95.89
2016-08-05T09:17:14.021Z,95.6
2016-08-05T09:18:14.736Z,94.97
2016-08-05T09:19:14.070Z,94.3
2016-08-05T09:20:14.097Z,94.25
2016-08-05T09:21:14.134Z,93.15
2016-08-05T09:22:14.150Z,93.29
2016-08-05T09:23:14.178Z,94.35
2016-08-05T09:24:14.205Z,93.68
2016-08-05T09:25:14.230Z,93.77
2016-08-05T09:26:14.260Z,94.59
2016-08-05T09:27:14.987Z,94.49
2016-08-05T09:30:14.372Z,92.76
2016-08-05T09:31:14.396Z,92.28
2016-08-05T09:32:29.346Z,91.89
2016-08-05T09:33:14.460Z,91.89
2016-08-05T09:34:14.479Z,92.18
2016-08-05T09:35:14.508Z,91.8
2016-08-05T09:36:14.534Z,91.31
2016-08-05T09:37:14.559Z,91.89
2016-08-05T09:38:14.588Z,91.99
2016-08-05T09:39:14.610Z,90.78
2016-08-05T09:40:14.640Z,89.72
2016-08-05T09:41:14.670Z,91.36
2016-08-05T09:42:14.695Z,91.27
2016-08-05T09:43:14.723Z,89.63
2016-08-05T09:44:14.750Z,90.4
2016-08-05T09:46:14.809Z,87.94
2016-08-05T09:47:29.757Z,87.07
2016-08-05T09:48:14.862Z,86.01
2016-08-05T09:49:14.887Z,88.04
2016-08-05T09:50:14.918Z,88.04
2016-08-05T09:51:14.948Z,87.98
2016-08-05T09:52:14.976Z,86.82
2016-08-05T09:53:15.000Z,84.42
2016-08-05T09:54:15.029Z,83.16
2016-08-05T09:55:15.058Z,83.84
2016-08-05T09:56:15.082Z,84.8
2016-08-05T09:57:15.114Z,86.1
2016-08-05T09:58:15.139Z,86.48
2016-08-05T10:00:15.195Z,82.14
2016-08-05T10:01:15.233Z,82.62
2016-08-05T10:02:15.256Z,83.44
2016-08-05T10:05:15.333Z,82.09
2016-08-05T10:06:15.369Z,81.35
2016-08-05T10:07:15.388Z,81.51
2016-08-05T10:08:15.422Z,81.6
2016-08-05T10:09:15.452Z,81.8
2016-08-05T10:10:15.485Z,81.7
2016-08-05T10:11:15.514Z,81.8
2016-08-05T10:12:15.532Z,82.28
2016-08-05T10:13:15.563Z,80.64
2016-08-05T10:14:15.600Z,80.45
2016-08-05T10:15:15.621Z,82.38
2016-08-05T10:16:15.648Z,82.18
2016-08-05T10:17:15.681Z,81.41
2016-08-05T10:18:15.705Z,80.97
2016-08-05T10:19:30.662Z,81.12
2016-08-05T10:20:15.766Z,81.26
2016-08-05T10:21:15.799Z,80.2
2016-08-05T10:22:15.820Z,80.49
2016-08-05T10:23:15.862Z,80.78
2016-08-05T10:24:15.881Z,82.32
2016-08-05T10:25:15.908Z,80.68
2016-08-05T10:26:15.938Z,80.49
2016-08-05T10:27:15.966Z,80.97
2016-08-05T10:28:16.000Z,81.65
2016-08-05T10:29:16.022Z,80.49
2016-08-05T10:30:16.055Z,81.4
2016-08-05T10:33:16.146Z,78.02
2016-08-05T10:34:16.168Z,79.41
2016-08-05T10:35:31.125Z,77.96
2016-08-05T10:36:16.234Z,76.42
2016-08-05T10:37:16.255Z,75.84
2016-08-05T10:38:16.286Z,77.19
2016-08-05T10:39:16.312Z,78.83
2016-08-05T10:40:16.344Z,76.51
2016-08-05T10:41:16.371Z,77
2016-08-05T10:42:16.403Z,75.35
2016-08-05T10:43:16.433Z,75.93
2016-08-05T10:44:16.459Z,76.03
2016-08-05T10:45:16.489Z,77.19
2016-08-05T10:46:16.519Z,75.45
2016-08-05T10:47:16.546Z,75.74
2016-08-05T10:48:16.575Z,75.45
2016-08-05T10:49:16.610Z,74.52
2016-08-05T10:50:16.631Z,75.2
2016-08-05T10:51:31.591Z,74.81
2016-08-05T10:52:16.691Z,77.42
2016-08-05T10:53:16.721Z,75.52
2016-08-05T10:54:16.755Z,77.17
2016-08-05T10:55:16.780Z,74.3
2016-08-05T10:56:16.823Z,74.65
2016-08-05T10:57:16.840Z,73.04
2016-08-05T10:58:16.870Z,70.59
2016-08-05T10:59:16.912Z,71.62
2016-08-05T11:00:16.929Z,72.45
2016-08-05T11:01:16.957Z,76.47
2016-08-05T11:02:17.689Z,75.16
2016-08-05T11:03:17.020Z,75.74
2016-08-05T11:04:17.047Z,73.65
2016-08-05T11:05:17.087Z,74.17
2016-08-05T11:06:17.104Z,74.36
2016-08-05T11:07:32.063Z,73.2
2016-08-05T11:08:17.166Z,74.17
2016-08-05T11:09:17.204Z,74.4
2016-08-05T11:10:17.230Z,71.88
2016-08-05T11:11:17.256Z,73.04
2016-08-05T11:12:17.291Z,72.02
2016-08-05T11:13:17.315Z,70.08
2016-08-05T11:14:17.348Z,69.05
2016-08-05T11:15:17.379Z,67.5
2016-08-05T11:16:17.408Z,68.47
2016-08-05T11:17:17.435Z,68.95
2016-08-05T11:18:17.466Z,69.43
2016-08-05T11:19:18.197Z,67.98
2016-08-05T11:20:17.522Z,69.15
2016-08-05T11:21:17.560Z,68.91
2016-08-05T11:22:32.511Z,69.31
2016-08-05T11:23:17.621Z,67.02
2016-08-05T11:24:17.649Z,67.46
2016-08-05T11:25:17.677Z,68.63
2016-08-05T11:26:17.710Z,69.59
2016-08-05T11:27:17.737Z,71.56
2016-08-05T11:28:17.766Z,70.34
2016-08-05T11:29:17.796Z,67.34
2016-08-05T11:30:17.828Z,67.82
2016-08-05T11:31:17.863Z,66.82
2016-08-05T11:32:17.888Z,67.6
2016-08-05T11:33:17.918Z,67.37
2016-08-05T11:34:17.951Z,70.27
2016-08-05T11:35:17.979Z,70.27
2016-08-05T11:36:18.006Z,70.08
2016-08-05T11:37:18.041Z,67.18
2016-08-05T11:39:18.104Z,69.89
2016-08-05T11:40:18.132Z,70.37
2016-08-05T11:41:18.168Z,69.4
2016-08-05T11:42:18.287Z,69.59
2016-08-05T11:43:18.222Z,69.4
2016-08-05T11:44:18.253Z,69.01
2016-08-05T11:45:18.283Z,68.53
2016-08-05T11:46:18.311Z,69.89
2016-08-05T11:47:18.337Z,67.95
2016-08-05T11:48:18.374Z,70.14
2016-08-05T11:49:18.401Z,68.21
2016-08-05T11:50:18.433Z,68.79
2016-08-05T11:51:18.460Z,69.75
2016-08-05T11:52:18.494Z,68.91
2016-08-05T11:54:33.474Z,69.24
2016-08-05T11:55:18.581Z,68.08
2016-08-05T11:56:18.615Z,67.5
2016-08-05T11:57:18.648Z,68.05
2016-08-05T11:58:18.668Z,68.05
2016-08-05T11:59:18.702Z,68.08
2016-08-05T12:00:18.732Z,68.63
2016-08-05T12:01:18.767Z,67.5
2016-08-05T12:02:18.792Z,68.08
2016-08-05T12:03:18.826Z,68.08
2016-08-05T12:04:18.848Z,68.53
2016-08-05T12:06:18.909Z,67.69
2016-08-05T12:07:18.938Z,67.11
2016-08-05T12:08:18.972Z,66.05
2016-08-05T12:09:19.000Z,65.14
2016-08-05T12:10:33.961Z,66.2
2016-08-05T12:11:19.065Z,67.08
2016-08-05T12:12:19.090Z,68.24
2016-08-05T12:13:19.126Z,67.5
2016-08-05T12:14:19.148Z,67.37
2016-08-05T12:15:19.181Z,68.05
2016-08-05T12:16:19.214Z,67.95
2016-08-05T12:17:19.244Z,67.85
2016-08-05T12:18:19.274Z,67.76
2016-08-05T12:19:19.302Z,68.05
2016-08-05T12:20:19.337Z,68.63
2016-08-05T12:21:19.363Z,66.88
2016-08-05T12:23:19.423Z,66.02
2016-08-05T12:24:19.451Z,66.14
2016-08-05T12:25:19.491Z,68.24
2016-08-05T12:26:34.439Z,66.53
2016-08-05T12:28:19.575Z,67.3
2016-08-05T12:29:19.606Z,67.79
2016-08-05T12:30:19.630Z,67.21
2016-08-05T12:31:19.668Z,68.47
2016-08-05T12:32:19.694Z,68.18
2016-08-05T12:33:19.727Z,68.37
2016-08-05T12:34:19.757Z,68.27
2016-08-05T12:35:19.785Z,66.53
2016-08-05T12:36:19.812Z,66.82
2016-08-05T12:37:19.844Z,66.24
2016-08-05T12:38:19.881Z,67.21
2016-08-05T12:39:19.905Z,65.85
2016-08-05T12:41:19.970Z,67.3
2016-08-05T12:42:34.928Z,68.56
2016-08-05T12:43:20.028Z,68.66
2016-08-05T12:45:20.091Z,67.02
2016-08-05T12:46:20.116Z,65.47
2016-08-05T12:47:20.149Z,68.47
2016-08-05T12:48:20.183Z,68.76
2016-08-05T12:49:20.206Z,69.01
2016-08-05T12:50:20.243Z,67.95
2016-08-05T12:51:20.273Z,68.82
2016-08-05T12:52:20.303Z,68.98
2016-08-05T12:54:20.358Z,70.43
2016-08-05T12:55:20.388Z,70.14
2016-08-05T12:57:35.386Z,71.36
2016-08-05T12:58:20.485Z,72.97
2016-08-05T12:59:20.508Z,73.36
2016-08-05T13:00:20.537Z,75.97
2016-08-05T13:01:20.571Z,76.64
2016-08-05T13:02:20.598Z,77.48
2016-08-05T13:03:20.629Z,78.69
2016-08-05T13:04:20.655Z,77
2016-08-05T13:06:20.719Z,75.51
2016-08-05T13:07:20.750Z,79.47
2016-08-05T13:08:20.773Z,77.34
2016-08-05T13:09:20.813Z,77.25
2016-08-05T13:10:20.831Z,78.99
2016-08-05T13:11:20.866Z,77.25
2016-08-05T13:13:20.924Z,80.53
2016-08-05T13:14:20.953Z,79.47
2016-08-05T13:15:20.980Z,78.89
2016-08-05T13:16:21.005Z,79.56
2016-08-05T13:17:21.091Z,78.34
2016-08-05T13:18:21.070Z,78.34
2016-08-05T13:19:21.098Z,78.54
2016-08-05T13:20:21.129Z,78.64
2016-08-05T13:21:21.157Z,78.92
2016-08-05T13:22:21.180Z,76.7
2016-08-05T13:23:21.217Z,77.67
2016-08-05T13:24:21.246Z,75.54
2016-08-05T13:25:21.271Z,77.57
2016-08-05T13:26:21.299Z,76.55
2016-08-05T13:28:21.361Z,73.84
2016-08-05T13:29:36.311Z,74.13
2016-08-05T13:30:21.415Z,71.91
2016-08-05T13:31:21.450Z,74.04
2016-08-05T13:32:21.475Z,75.1
2016-08-05T13:33:21.507Z,74.52
2016-08-05T13:34:21.537Z,74.42
2016-08-05T13:35:21.563Z,74.17
2016-08-05T13:36:21.589Z,73.3
2016-08-05T13:37:21.631Z,72.75
2016-08-05T13:38:21.651Z,72.72
2016-08-05T13:39:21.677Z,71.4
2016-08-05T13:40:21.714Z,71.08
2016-08-05T13:41:21.738Z,72.33
2016-08-05T13:43:21.802Z,72.42
2016-08-05T13:44:21.833Z,71.84
2016-08-05T13:45:36.784Z,70.26
2016-08-05T13:46:21.937Z,71.52
2016-08-05T13:47:21.914Z,72.49